createdAt,value
2019-01-27T00:00:17.223Z,74.74
2019-01-27T00:03:47.357Z,74.68
2019-01-27T00:07:17.526Z,74.66
2019-01-27T00:10:47.706Z,74.65
2019-01-27T00:14:17.827Z,74.63
2019-01-27T00:17:47.895Z,74.56
2019-01-27T00:21:18.006Z,74.52
2019-01-27T00:24:48.021Z,74.43
2019-01-27T00:28:18.145Z,74.41
2019-01-27T00:31:48.225Z,74.39
2019-01-27T00:35:18.345Z,74.35
2019-01-27T00:38:48.635Z,74.33
2019-01-27T00:42:18.785Z,74.33
2019-01-27T00:45:49.890Z,74.32
2019-01-27T00:49:20.104Z,74.3
2019-01-27T00:52:50.039Z,74.27
2019-01-27T00:56:20.004Z,74.27
2019-01-27T00:59:50.005Z,74.23
2019-01-27T01:03:20.139Z,74.18
2019-01-27T01:06:50.225Z,74.17
2019-01-27T01:10:21.167Z,74.14
2019-01-27T01:13:51.305Z,74.11
2019-01-27T01:17:21.343Z,74.07
2019-01-27T01:20:51.414Z,74.05
2019-01-27T01:24:21.613Z,73.99
2019-01-27T01:27:51.743Z,73.97
2019-01-27T01:31:21.934Z,73.93
2019-01-27T01:34:51.932Z,73.88
2019-01-27T01:38:21.903Z,73.87
2019-01-27T01:41:51.943Z,73.83
2019-01-27T01:45:24.375Z,73.78
2019-01-27T01:48:55.382Z,73.73
2019-01-27T01:52:25.553Z,73.71
2019-01-27T01:55:55.592Z,73.66
2019-01-27T01:59:25.692Z,73.58
2019-01-27T02:00:18.733Z,73.59
2019-01-27T02:03:48.892Z,73.56
2019-01-27T02:07:19.072Z,73.52
2019-01-27T02:10:49.262Z,73.47
2019-01-27T02:14:19.371Z,73.44
2019-01-27T02:17:49.421Z,73.46
2019-01-27T02:21:19.491Z,73.42
2019-01-27T02:24:49.575Z,73.4
2019-01-27T02:28:19.791Z,73.38
2019-01-27T02:31:49.891Z,73.38
2019-01-27T02:35:19.991Z,73.33
2019-01-27T02:38:50.039Z,73.3
2019-01-27T02:42:20.082Z,73.26
2019-01-27T02:45:50.128Z,73.21
2019-01-27T02:49:21.051Z,73.18
2019-01-27T02:52:51.110Z,73.14
2019-01-27T02:56:21.340Z,73.08
2019-01-27T02:59:52.795Z,73.04
2019-01-27T03:03:23.020Z,72.98
2019-01-27T03:06:58.553Z,72.94
2019-01-27T03:10:28.700Z,72.9
2019-01-27T03:13:58.890Z,72.88
2019-01-27T03:17:29.020Z,72.83
2019-01-27T03:20:59.056Z,72.81
2019-01-27T03:24:29.110Z,72.75
2019-01-27T03:27:59.220Z,72.71
2019-01-27T03:31:29.343Z,72.68
2019-01-27T03:34:59.310Z,72.66
2019-01-27T03:38:29.440Z,72.58
2019-01-27T03:41:59.570Z,72.54
2019-01-27T03:45:29.669Z,72.5
2019-01-27T03:48:59.879Z,72.47
2019-01-27T03:52:30.849Z,72.44
2019-01-27T03:56:01.021Z,72.41
2019-01-27T03:59:31.050Z,72.38
2019-01-27T04:00:17.770Z,72.37
2019-01-27T04:03:47.779Z,72.34
2019-01-27T04:07:17.972Z,72.31
2019-01-27T04:10:48.021Z,72.29
2019-01-27T04:14:18.183Z,72.26
2019-01-27T04:17:48.362Z,72.23
2019-01-27T04:21:18.459Z,72.21
2019-01-27T04:24:48.606Z,72.17
2019-01-27T04:28:18.779Z,72.1
2019-01-27T04:31:48.808Z,72.08
2019-01-27T04:35:18.963Z,72
2019-01-27T04:38:49.039Z,71.95
2019-01-27T04:42:19.207Z,71.92
2019-01-27T04:45:49.238Z,71.9
2019-01-27T04:49:19.369Z,71.87
2019-01-27T04:52:50.489Z,71.85
2019-01-27T04:56:20.558Z,71.82
2019-01-27T04:59:50.702Z,71.77
2019-01-27T05:05:41.708Z,71.71
2019-01-27T05:09:11.879Z,71.65
2019-01-27T05:12:42.058Z,71.62
2019-01-27T05:16:12.139Z,71.58
2019-01-27T05:19:42.223Z,71.53
2019-01-27T05:23:12.328Z,71.51
2019-01-27T05:26:42.451Z,71.5
2019-01-27T05:30:15.548Z,71.46
2019-01-27T05:33:45.748Z,71.44
2019-01-27T05:37:15.862Z,71.39
2019-01-27T05:40:45.878Z,71.36
2019-01-27T05:44:15.988Z,71.32
2019-01-27T05:47:46.129Z,71.27
2019-01-27T05:51:16.269Z,71.24
2019-01-27T05:54:47.478Z,71.21
2019-01-27T05:58:17.668Z,71.16
2019-01-27T06:00:20.379Z,71.15
2019-01-27T06:03:50.357Z,71.1
2019-01-27T06:07:20.499Z,71.06
2019-01-27T06:10:50.758Z,71.01
2019-01-27T06:14:20.930Z,71
2019-01-27T06:17:50.978Z,70.94
2019-01-27T06:21:21.218Z,70.93
2019-01-27T06:24:51.228Z,70.92
2019-01-27T06:28:21.360Z,70.88
2019-01-27T06:31:51.449Z,70.85
2019-01-27T06:35:21.445Z,70.82
2019-01-27T06:38:51.496Z,70.8
2019-01-27T06:42:21.566Z,70.78
2019-01-27T06:45:51.598Z,70.74
2019-01-27T06:49:21.788Z,70.68
2019-01-27T06:52:51.858Z,70.64
2019-01-27T06:56:22.888Z,70.6
2019-01-27T06:59:57.707Z,70.59
2019-01-27T07:03:31.348Z,70.55
2019-01-27T07:07:15.108Z,70.52
2019-01-27T07:11:03.719Z,70.47
2019-01-27T07:14:42.528Z,70.43
2019-01-27T07:18:26.358Z,70.38
2019-01-27T07:22:23.148Z,70.32
2019-01-27T07:26:04.988Z,70.3
2019-01-27T07:32:09.642Z,70.21
2019-01-27T07:35:49.139Z,70.2
2019-01-27T07:39:27.449Z,70.13
2019-01-27T07:43:05.919Z,70.09
2019-01-27T07:46:58.089Z,70.01
2019-01-27T07:52:57.909Z,69.9
2019-01-27T07:57:43.209Z,69.83
2019-01-27T08:00:23.739Z,69.8
2019-01-27T08:06:22.369Z,69.73
2019-01-27T08:10:06.079Z,69.68
2019-01-27T08:13:43.059Z,69.57
2019-01-27T08:19:50.640Z,69.42
2019-01-27T08:23:29.149Z,69.29
2019-01-27T08:29:25.539Z,69.1
2019-01-27T08:33:18.323Z,68.98
2019-01-27T08:36:53.944Z,68.83
2019-01-27T08:40:38.250Z,68.72
2019-01-27T08:44:18.040Z,68.62
2019-01-27T08:47:48.130Z,68.5
2019-01-27T08:51:18.170Z,68.41
2019-01-27T08:54:48.230Z,68.32
2019-01-27T08:58:20.190Z,68.25
2019-01-27T09:04:17.576Z,68.13
2019-01-27T09:07:53.505Z,68.06
2019-01-27T09:11:39.661Z,67.98
2019-01-27T09:17:42.581Z,67.81
2019-01-27T09:21:18.268Z,67.7
2019-01-27T09:25:11.921Z,67.6
2019-01-27T09:28:48.341Z,67.48
2019-01-27T09:32:27.891Z,67.35
2019-01-27T09:36:06.442Z,67.19
2019-01-27T09:40:01.022Z,67.07
2019-01-27T09:43:40.372Z,66.92
2019-01-27T09:47:35.792Z,66.8
2019-01-27T09:52:16.362Z,66.68
2019-01-27T09:55:59.042Z,66.5
2019-01-27T09:59:50.778Z,66.33
2019-01-27T10:01:05.382Z,66.29
2019-01-27T10:04:41.913Z,66.15
2019-01-27T10:10:39.335Z,65.97
2019-01-27T10:14:33.372Z,65.81
2019-01-27T10:20:31.265Z,65.6
2019-01-27T10:24:11.673Z,65.49
2019-01-27T10:27:58.003Z,65.38
2019-01-27T10:31:55.112Z,65.29
2019-01-27T10:37:49.253Z,65.1
2019-01-27T10:41:26.443Z,65.02
2019-01-27T10:45:04.174Z,64.92
2019-01-27T10:48:42.803Z,64.79
2019-01-27T10:58:42.723Z,64.47
2019-01-27T11:02:38.017Z,64.35
2019-01-27T11:06:17.108Z,64.2
2019-01-27T11:09:54.138Z,64.1
2019-01-27T11:13:34.604Z,64.02
2019-01-27T11:17:16.934Z,63.92
2019-01-27T11:22:17.424Z,63.89
2019-01-27T11:26:00.780Z,63.85
2019-01-27T11:29:37.654Z,63.8
2019-01-27T11:33:47.955Z,63.71
2019-01-27T11:37:59.834Z,63.58
2019-01-27T11:41:46.074Z,63.42
2019-01-27T11:45:24.415Z,63.28
2019-01-27T11:51:24.533Z,63.03
2019-01-27T11:54:54.666Z,62.91
2019-01-27T11:58:24.694Z,62.77
2019-01-27T12:00:18.189Z,62.7
2019-01-27T12:03:48.485Z,62.56
2019-01-27T12:07:18.577Z,62.45
2019-01-27T12:10:48.736Z,62.32
2019-01-27T12:14:18.946Z,62.23
2019-01-27T12:17:49.077Z,62.11
2019-01-27T12:21:19.238Z,62
2019-01-27T12:24:49.296Z,61.88
2019-01-27T12:28:19.296Z,61.76
2019-01-27T12:31:49.418Z,61.66
2019-01-27T12:35:19.916Z,61.52
2019-01-27T12:38:50.036Z,61.42
2019-01-27T12:42:20.106Z,61.3
2019-01-27T12:45:50.256Z,61.22
2019-01-27T12:49:20.386Z,61.13
2019-01-27T12:52:50.799Z,61.04
2019-01-27T12:56:20.927Z,60.95
2019-01-27T12:59:51.057Z,60.87
2019-01-27T13:03:21.593Z,60.79
2019-01-27T13:06:52.747Z,60.71
2019-01-27T13:10:22.917Z,60.65
2019-01-27T13:13:52.977Z,60.55
2019-01-27T13:17:23.057Z,60.49
2019-01-27T13:20:53.177Z,60.43
2019-01-27T13:24:23.230Z,60.36
2019-01-27T13:27:53.375Z,60.28
2019-01-27T13:31:23.377Z,60.23
2019-01-27T13:34:56.263Z,60.17
2019-01-27T13:38:26.487Z,60.1
2019-01-27T13:41:56.579Z,60.05
2019-01-27T13:45:26.957Z,60
2019-01-27T13:48:57.027Z,59.95
2019-01-27T13:52:26.977Z,59.91
2019-01-27T13:55:57.002Z,59.88
2019-01-27T13:59:26.983Z,59.82
2019-01-27T14:00:20.132Z,59.81
2019-01-27T14:03:50.108Z,59.79
2019-01-27T14:07:21.098Z,59.76
2019-01-27T14:10:51.127Z,59.75
2019-01-27T14:14:21.237Z,59.72
2019-01-27T14:17:51.308Z,59.69
2019-01-27T14:21:21.378Z,59.65
2019-01-27T14:24:51.527Z,59.66
2019-01-27T14:28:21.607Z,59.61
2019-01-27T14:31:51.707Z,59.6
2019-01-27T14:35:21.787Z,59.6
2019-01-27T14:38:51.972Z,59.6
2019-01-27T14:42:22.032Z,59.58
2019-01-27T14:45:52.139Z,59.59
2019-01-27T14:49:22.277Z,59.58
2019-01-27T14:52:52.419Z,59.57
2019-01-27T14:56:22.517Z,59.56
2019-01-27T14:59:52.644Z,59.57
2019-01-27T15:03:22.817Z,59.56
2019-01-27T15:06:52.890Z,59.57
2019-01-27T15:10:24.107Z,59.57
2019-01-27T15:13:54.147Z,59.57
2019-01-27T15:17:24.357Z,59.58
2019-01-27T15:20:59.129Z,59.6
2019-01-27T15:24:29.247Z,59.61
2019-01-27T15:27:59.426Z,59.63
2019-01-27T15:31:29.447Z,59.65
2019-01-27T15:34:59.547Z,59.69
2019-01-27T15:38:29.646Z,59.7
2019-01-27T15:41:59.727Z,59.74
2019-01-27T15:45:30.237Z,59.75
2019-01-27T15:49:00.349Z,59.79
2019-01-27T15:52:30.387Z,59.82
2019-01-27T15:56:00.508Z,59.84
2019-01-27T15:59:30.518Z,59.86
2019-01-27T16:00:20.405Z,59.87
2019-01-27T16:03:50.594Z,59.9
2019-01-27T16:07:20.727Z,59.91
2019-01-27T16:10:51.950Z,59.94
2019-01-27T16:14:22.012Z,59.94
2019-01-27T16:17:52.197Z,59.98
2019-01-27T16:21:22.187Z,60.01
2019-01-27T16:24:52.377Z,60.03
2019-01-27T16:28:22.397Z,60.06
2019-01-27T16:31:57.892Z,60.09
2019-01-27T16:35:28.047Z,60.12
2019-01-27T16:38:58.309Z,60.16
2019-01-27T16:42:28.446Z,60.17
2019-01-27T16:45:58.597Z,60.21
2019-01-27T16:49:28.617Z,60.23
2019-01-27T16:52:58.717Z,60.26
2019-01-27T16:56:29.176Z,60.31
2019-01-27T16:59:59.247Z,60.35
2019-01-27T17:03:29.319Z,60.38
2019-01-27T17:06:59.371Z,60.43
2019-01-27T17:10:29.427Z,60.45
2019-01-27T17:14:00.517Z,60.51
2019-01-27T17:17:30.597Z,60.57
2019-01-27T17:21:00.726Z,60.59
2019-01-27T17:24:30.857Z,60.63
2019-01-27T17:28:01.047Z,60.69
2019-01-27T17:31:31.209Z,60.73
2019-01-27T17:35:01.763Z,60.79
2019-01-27T17:38:32.027Z,60.85
2019-01-27T17:42:02.296Z,60.92
2019-01-27T17:45:32.426Z,60.96
2019-01-27T17:49:02.706Z,61.02
2019-01-27T17:52:32.806Z,61.06
2019-01-27T17:56:03.267Z,61.1
2019-01-27T17:59:38.706Z,61.16
2019-01-27T18:00:34.581Z,61.17
2019-01-27T18:06:30.526Z,61.28
2019-01-27T18:10:22.839Z,61.32
2019-01-27T18:14:31.136Z,61.39
2019-01-27T18:18:01.393Z,61.45
2019-01-27T18:21:31.481Z,61.5
2019-01-27T18:25:01.518Z,61.56
2019-01-27T18:28:31.766Z,61.63
2019-01-27T18:32:01.976Z,61.67
2019-01-27T18:35:32.017Z,61.73
2019-01-27T18:39:06.613Z,61.77
2019-01-27T18:42:37.243Z,61.84
2019-01-27T18:46:07.615Z,61.87
2019-01-27T18:49:37.729Z,61.93
2019-01-27T18:53:20.146Z,61.98
2019-01-27T18:56:55.786Z,62.02
2019-01-27T19:00:37.986Z,62.07
2019-01-27T19:04:15.976Z,62.12
2019-01-27T19:07:55.086Z,62.18
2019-01-27T19:11:35.306Z,62.24
2019-01-27T19:16:29.526Z,62.32
2019-01-27T19:20:11.795Z,62.35
2019-01-27T19:24:13.446Z,62.44
2019-01-27T19:28:27.885Z,62.46
2019-01-27T19:34:26.446Z,62.56
2019-01-27T19:38:04.562Z,62.63
2019-01-27T19:41:43.726Z,62.66
2019-01-27T19:45:22.735Z,62.74
2019-01-27T19:49:16.436Z,62.76
2019-01-27T19:53:57.726Z,62.8
2019-01-27T19:57:37.018Z,62.86
2019-01-27T20:00:27.206Z,62.85
2019-01-27T20:04:07.876Z,62.9
2019-01-27T20:07:46.186Z,62.95
2019-01-27T20:17:18.215Z,63.05
2019-01-27T20:20:58.275Z,63.09
2019-01-27T20:24:38.355Z,63.17
2019-01-27T20:28:16.325Z,63.19
2019-01-27T20:34:29.985Z,63.3
2019-01-27T20:38:11.415Z,63.35
2019-01-27T20:41:54.575Z,63.43
2019-01-27T20:46:11.945Z,63.48
2019-01-27T20:49:50.965Z,63.55
2019-01-27T20:53:26.837Z,63.61
2019-01-27T20:57:04.761Z,63.67
2019-01-27T21:00:44.713Z,63.74
2019-01-27T21:04:22.930Z,63.8
2019-01-27T21:08:04.824Z,63.86
2019-01-27T21:11:44.830Z,63.96
2019-01-27T21:18:12.353Z,64.11
2019-01-27T21:21:42.504Z,64.22
2019-01-27T21:25:12.824Z,64.32
2019-01-27T21:28:42.876Z,64.4
2019-01-27T21:32:12.989Z,64.5
2019-01-27T21:35:42.944Z,64.61
2019-01-27T21:39:13.103Z,64.71
2019-01-27T21:42:47.562Z,64.8
2019-01-27T21:46:18.056Z,64.92
2019-01-27T21:49:48.138Z,65.01
2019-01-27T21:53:18.360Z,65.1
2019-01-27T21:56:48.440Z,65.19
2019-01-27T22:00:18.978Z,65.26
2019-01-27T22:03:49.016Z,65.36
2019-01-27T22:07:19.213Z,65.43
2019-01-27T22:10:49.239Z,65.52
2019-01-27T22:14:19.269Z,65.59
2019-01-27T22:17:49.379Z,65.66
2019-01-27T22:21:20.466Z,65.75
2019-01-27T22:24:50.646Z,65.85
2019-01-27T22:28:20.812Z,65.93
2019-01-27T22:31:50.900Z,65.98
2019-01-27T22:35:21.088Z,66.09
2019-01-27T22:38:51.167Z,66.15
2019-01-27T22:42:21.282Z,66.25
2019-01-27T22:45:51.425Z,66.31
2019-01-27T22:49:21.482Z,66.41
2019-01-27T22:52:51.501Z,66.5
2019-01-27T22:56:21.587Z,66.58
2019-01-27T22:59:51.697Z,66.66
2019-01-27T23:03:21.934Z,66.75
2019-01-27T23:06:51.921Z,66.82
2019-01-27T23:10:22.051Z,66.9
2019-01-27T23:13:52.101Z,66.98
2019-01-27T23:17:22.197Z,67.07
2019-01-27T23:20:52.245Z,67.15
2019-01-27T23:24:23.383Z,67.24
2019-01-27T23:27:53.501Z,67.32
2019-01-27T23:31:23.683Z,67.42
2019-01-27T23:34:53.797Z,67.51
2019-01-27T23:38:23.906Z,67.6
2019-01-27T23:41:53.946Z,67.7
2019-01-27T23:45:24.242Z,67.76
2019-01-27T23:48:54.371Z,67.87
2019-01-27T23:52:24.549Z,67.93
2019-01-27T23:55:54.631Z,68.01
2019-01-27T23:59:24.735Z,68.08
